sensor_id;sensor_type;location;lat;lon;timestamp;pressure;altitude;pressure_sealevel;temperature;humidity
16120;BME280;12670;53.502;10.252;2023-03-13T00:02:49;99925.00;;;6.98;100.00
16120;BME280;12670;53.502;10.252;2023-03-13T00:05:55;99928.19;;;7.06;100.00
16120;BME280;12670;53.502;10.252;2023-03-13T00:09:00;99922.38;;;6.98;100.00
16120;BME280;12670;53.502;10.252;2023-03-13T00:12:03;99910.31;;;7.13;100.00
16120;BME280;12670;53.502;10.252;2023-03-13T00:15:07;99905.13;;;7.11;100.00
16120;BME280;12670;53.502;10.252;2023-03-13T00:18:10;99897.31;;;7.08;100.00
16120;BME280;12670;53.502;10.252;2023-03-13T00:21:13;99896.72;;;7.02;100.00
16120;BME280;12670;53.502;10.252;2023-03-13T00:24:17;99890.47;;;7.04;100.00
16120;BME280;12670;53.502;10.252;2023-03-13T00:27:19;99881.75;;;7.02;100.00
16120;BME280;12670;53.502;10.252;2023-03-13T00:30:22;99883.34;;;7.06;100.00
16120;BME280;12670;53.502;10.252;2023-03-13T00:33:24;99883.09;;;7.12;100.00
16120;BME280;12670;53.502;10.252;2023-03-13T00:36:29;99869.91;;;7.12;100.00
16120;BME280;12670;53.502;10.252;2023-03-13T00:39:33;99867.94;;;7.17;100.00
16120;BME280;12670;53.502;10.252;2023-03-13T00:42:36;99865.56;;;7.11;100.00
16120;BME280;12670;53.502;10.252;2023-03-13T00:45:38;99867.78;;;7.20;100.00
16120;BME280;12670;53.502;10.252;2023-03-13T00:48:41;99856.00;;;7.29;100.00
16120;BME280;12670;53.502;10.252;2023-03-13T00:51:44;99854.22;;;7.30;100.00
16120;BME280;12670;53.502;10.252;2023-03-13T00:54:48;99838.41;;;7.30;100.00
16120;BME280;12670;53.502;10.252;2023-03-13T00:57:50;99838.25;;;7.33;100.00
16120;BME280;12670;53.502;10.252;2023-03-13T01:00:53;99831.66;;;7.22;100.00
16120;BME280;12670;53.502;10.252;2023-03-13T01:03:57;99825.66;;;7.19;100.00
16120;BME280;12670;53.502;10.252;2023-03-13T01:07:00;99826.31;;;7.04;100.00
16120;BME280;12670;53.502;10.252;2023-03-13T01:10:06;99821.91;;;7.25;100.00
16120;BME280;12670;53.502;10.252;2023-03-13T01:13:08;99813.03;;;7.27;100.00
16120;BME280;12670;53.502;10.252;2023-03-13T01:16:13;99809.78;;;7.41;100.00
16120;BME280;12670;53.502;10.252;2023-03-13T01:19:16;99802.91;;;7.37;100.00
16120;BME280;12670;53.502;10.252;2023-03-13T01:22:18;99797.34;;;7.43;100.00
16120;BME280;12670;53.502;10.252;2023-03-13T01:25:22;99791.94;;;7.26;100.00
16120;BME280;12670;53.502;10.252;2023-03-13T01:28:25;99789.72;;;7.37;100.00
16120;BME280;12670;53.502;10.252;2023-03-13T01:31:29;99783.13;;;7.47;100.00
16120;BME280;12670;53.502;10.252;2023-03-13T01:34:33;99782.84;;;7.53;100.00
16120;BME280;12670;53.502;10.252;2023-03-13T01:37:35;99766.84;;;7.56;100.00
16120;BME280;12670;53.502;10.252;2023-03-13T01:40:40;99765.03;;;7.38;100.00
16120;BME280;12670;53.502;10.252;2023-03-13T01:43:43;99751.16;;;7.53;100.00
16120;BME280;12670;53.502;10.252;2023-03-13T01:46:47;99744.91;;;7.74;100.00
16120;BME280;12670;53.502;10.252;2023-03-13T01:49:50;99734.03;;;7.43;100.00
16120;BME280;12670;53.502;10.252;2023-03-13T01:52:54;99723.19;;;7.49;100.00
16120;BME280;12670;53.502;10.252;2023-03-13T01:55:59;99722.34;;;7.67;100.00
16120;BME280;12670;53.502;10.252;2023-03-13T01:59:03;99710.72;;;7.71;100.00
16120;BME280;12670;53.502;10.252;2023-03-13T02:02:08;99705.38;;;7.54;100.00
16120;BME280;12670;53.502;10.252;2023-03-13T02:05:11;99684.25;;;7.54;100.00
16120;BME280;12670;53.502;10.252;2023-03-13T02:08:17;99686.53;;;7.62;100.00
16120;BME280;12670;53.502;10.252;2023-03-13T02:11:28;99681.78;;;7.51;100.00
16120;BME280;12670;53.502;10.252;2023-03-13T02:14:35;99679.13;;;7.51;100.00
16120;BME280;12670;53.502;10.252;2023-03-13T02:17:39;99667.72;;;7.51;100.00
16120;BME280;12670;53.502;10.252;2023-03-13T02:20:42;99663.50;;;7.28;100.00
16120;BME280;12670;53.502;10.252;2023-03-13T02:23:50;99656.16;;;7.53;100.00
16120;BME280;12670;53.502;10.252;2023-03-13T02:26:56;99652.28;;;7.60;100.00
16120;BME280;12670;53.502;10.252;2023-03-13T02:29:59;99647.47;;;7.51;100.00
16120;BME280;12670;53.502;10.252;2023-03-13T02:33:03;99638.34;;;7.39;100.00
16120;BME280;12670;53.502;10.252;2023-03-13T02:36:06;99634.19;;;7.34;100.00
16120;BME280;12670;53.502;10.252;2023-03-13T02:39:11;99630.50;;;7.57;100.00
16120;BME280;12670;53.502;10.252;2023-03-13T02:42:18;99625.81;;;7.62;100.00
16120;BME280;12670;53.502;10.252;2023-03-13T02:45:22;99621.34;;;7.64;100.00
16120;BME280;12670;53.502;10.252;2023-03-13T02:48:30;99613.78;;;7.56;100.00
16120;BME280;12670;53.502;10.252;2023-03-13T02:51:36;99608.38;;;7.40;100.00
16120;BME280;12670;53.502;10.252;2023-03-13T02:54:43;99617.34;;;7.17;100.00
16120;BME280;12670;53.502;10.252;2023-03-13T02:57:48;99609.16;;;7.24;100.00
16120;BME280;12670;53.502;10.252;2023-03-13T03:00:51;99608.13;;;7.07;100.00
16120;BME280;12670;53.502;10.252;2023-03-13T03:03:54;99591.38;;;7.08;100.00
16120;BME280;12670;53.502;10.252;2023-03-13T03:06:57;99589.34;;;7.34;100.00
16120;BME280;12670;53.502;10.252;2023-03-13T03:10:00;99586.06;;;7.29;100.00
16120;BME280;12670;53.502;10.252;2023-03-13T03:13:04;99573.84;;;7.26;100.00
16120;BME280;12670;53.502;10.252;2023-03-13T03:16:07;99566.63;;;7.48;100.00
16120;BME280;12670;53.502;10.252;2023-03-13T03:19:11;99554.59;;;7.43;100.00
16120;BME280;12670;53.502;10.252;2023-03-13T03:22:13;99553.06;;;7.39;100.00
16120;BME280;12670;53.502;10.252;2023-03-13T03:25:16;99567.31;;;7.35;100.00
16120;BME280;12670;53.502;10.252;2023-03-13T03:28:20;99545.25;;;7.36;100.00
16120;BME280;12670;53.502;10.252;2023-03-13T03:31:23;99538.41;;;7.32;100.00
16120;BME280;12670;53.502;10.252;2023-03-13T03:34:25;99533.50;;;7.24;100.00
16120;BME280;12670;53.502;10.252;2023-03-13T03:37:28;99535.06;;;7.47;100.00
16120;BME280;12670;53.502;10.252;2023-03-13T03:40:31;99517.72;;;7.41;100.00
16120;BME280;12670;53.502;10.252;2023-03-13T03:43:35;99515.94;;;7.42;100.00
16120;BME280;12670;53.502;10.252;2023-03-13T03:46:38;99508.41;;;7.34;100.00
16120;BME280;12670;53.502;10.252;2023-03-13T03:49:40;99496.44;;;7.27;100.00
16120;BME280;12670;53.502;10.252;2023-03-13T03:52:43;99494.06;;;7.21;100.00
16120;BME280;12670;53.502;10.252;2023-03-13T03:55:46;99485.59;;;7.33;100.00
16120;BME280;12670;53.502;10.252;2023-03-13T03:58:50;99478.19;;;7.22;100.00
16120;BME280;12670;53.502;10.252;2023-03-13T04:01:52;99473.94;;;7.37;100.00
16120;BME280;12670;53.502;10.252;2023-03-13T04:04:55;99478.16;;;7.41;100.00
16120;BME280;12670;53.502;10.252;2023-03-13T04:07:57;99464.88;;;7.43;100.00
16120;BME280;12670;53.502;10.252;2023-03-13T04:11:00;99451.16;;;7.54;100.00
16120;BME280;12670;53.502;10.252;2023-03-13T04:14:04;99447.94;;;7.30;100.00
16120;BME280;12670;53.502;10.252;2023-03-13T04:17:08;99436.69;;;7.26;100.00
16120;BME280;12670;53.502;10.252;2023-03-13T04:20:11;99442.38;;;7.36;100.00
16120;BME280;12670;53.502;10.252;2023-03-13T04:23:14;99422.13;;;7.54;100.00
16120;BME280;12670;53.502;10.252;2023-03-13T04:26:17;99422.88;;;7.38;100.00
16120;BME280;12670;53.502;10.252;2023-03-13T04:29:21;99416.44;;;7.44;100.00
16120;BME280;12670;53.502;10.252;2023-03-13T04:32:24;99403.44;;;7.41;100.00
16120;BME280;12670;53.502;10.252;2023-03-13T04:35:26;99396.13;;;7.63;100.00
16120;BME280;12670;53.502;10.252;2023-03-13T04:38:29;99378.44;;;7.48;100.00
16120;BME280;12670;53.502;10.252;2023-03-13T04:41:32;99382.00;;;7.47;100.00
16120;BME280;12670;53.502;10.252;2023-03-13T04:44:36;99368.97;;;7.44;100.00
16120;BME280;12670;53.502;10.252;2023-03-13T04:47:39;99364.78;;;7.40;100.00
16120;BME280;12670;53.502;10.252;2023-03-13T04:50:41;99351.50;;;7.41;100.00
16120;BME280;12670;53.502;10.252;2023-03-13T04:53:44;99341.91;;;7.23;100.00
16120;BME280;12670;53.502;10.252;2023-03-13T04:56:47;99336.00;;;7.35;100.00
16120;BME280;12670;53.502;10.252;2023-03-13T04:59:51;99322.09;;;7.49;100.00
16120;BME280;12670;53.502;10.252;2023-03-13T05:02:53;99310.91;;;7.44;100.00
16120;BME280;12670;53.502;10.252;2023-03-13T05:05:56;99299.47;;;7.28;100.00
16120;BME280;12670;53.502;10.252;2023-03-13T05:08:59;99291.97;;;7.53;100.00
16120;BME280;12670;53.502;10.252;2023-03-13T05:12:01;99281.41;;;7.53;100.00
16120;BME280;12670;53.502;10.252;2023-03-13T05:15:06;99271.63;;;7.55;100.00
16120;BME280;12670;53.502;10.252;2023-03-13T05:18:09;99252.38;;;7.53;100.00
16120;BME280;12670;53.502;10.252;2023-03-13T05:21:13;99250.22;;;7.44;100.00
16120;BME280;12670;53.502;10.252;2023-03-13T05:24:15;99242.78;;;7.52;100.00
16120;BME280;12670;53.502;10.252;2023-03-13T05:27:18;99228.47;;;7.56;100.00
16120;BME280;12670;53.502;10.252;2023-03-13T05:30:22;99220.75;;;7.36;100.00
16120;BME280;12670;53.502;10.252;2023-03-13T05:33:25;99212.38;;;7.45;100.00
16120;BME280;12670;53.502;10.252;2023-03-13T05:36:27;99210.78;;;7.58;100.00
16120;BME280;12670;53.502;10.252;2023-03-13T05:39:30;99213.28;;;7.44;100.00
16120;BME280;12670;53.502;10.252;2023-03-13T05:42:33;99223.00;;;7.43;100.00
16120;BME280;12670;53.502;10.252;2023-03-13T05:45:37;99217.19;;;7.37;100.00
16120;BME280;12670;53.502;10.252;2023-03-13T05:48:39;99211.88;;;7.54;100.00
16120;BME280;12670;53.502;10.252;2023-03-13T05:51:42;99207.88;;;7.47;100.00
16120;BME280;12670;53.502;10.252;2023-03-13T05:54:45;99192.69;;;7.35;100.00
16120;BME280;12670;53.502;10.252;2023-03-13T05:57:47;99194.44;;;7.52;100.00
16120;BME280;12670;53.502;10.252;2023-03-13T06:00:51;99184.53;;;7.39;100.00
16120;BME280;12670;53.502;10.252;2023-03-13T06:03:54;99176.38;;;7.60;100.00
16120;BME280;12670;53.502;10.252;2023-03-13T06:06:57;99178.75;;;7.48;100.00
16120;BME280;12670;53.502;10.252;2023-03-13T06:10:00;99162.25;;;7.45;100.00
16120;BME280;12670;53.502;10.252;2023-03-13T06:13:02;99173.13;;;7.39;100.00
16120;BME280;12670;53.502;10.252;2023-03-13T06:16:21;99163.28;;;7.58;100.00
16120;BME280;12670;53.502;10.252;2023-03-13T06:19:24;99161.63;;;7.56;100.00
16120;BME280;12670;53.502;10.252;2023-03-13T06:22:27;99166.50;;;7.47;100.00
16120;BME280;12670;53.502;10.252;2023-03-13T06:25:33;99153.38;;;7.62;100.00
16120;BME280;12670;53.502;10.252;2023-03-13T06:28:35;99147.78;;;7.52;100.00
16120;BME280;12670;53.502;10.252;2023-03-13T06:31:40;99152.38;;;7.48;100.00
16120;BME280;12670;53.502;10.252;2023-03-13T06:34:42;99146.09;;;7.51;100.00
16120;BME280;12670;53.502;10.252;2023-03-13T06:37:45;99144.53;;;7.47;100.00
16120;BME280;12670;53.502;10.252;2023-03-13T06:40:48;99134.75;;;7.49;100.00
16120;BME280;12670;53.502;10.252;2023-03-13T06:43:50;99139.34;;;7.61;100.00
16120;BME280;12670;53.502;10.252;2023-03-13T06:46:55;99118.69;;;7.69;100.00
16120;BME280;12670;53.502;10.252;2023-03-13T06:49:57;99115.19;;;7.69;100.00
16120;BME280;12670;53.502;10.252;2023-03-13T06:53:00;99110.31;;;7.77;100.00
16120;BME280;12670;53.502;10.252;2023-03-13T06:56:03;99098.72;;;7.80;100.00
16120;BME280;12670;53.502;10.252;2023-03-13T06:59:06;99093.78;;;7.89;100.00
16120;BME280;12670;53.502;10.252;2023-03-13T07:02:11;99082.78;;;7.97;100.00
16120;BME280;12670;53.502;10.252;2023-03-13T07:05:14;99078.97;;;7.87;100.00
16120;BME280;12670;53.502;10.252;2023-03-13T07:08:17;99075.19;;;7.91;100.00
16120;BME280;12670;53.502;10.252;2023-03-13T07:11:19;99075.38;;;8.04;100.00
16120;BME280;12670;53.502;10.252;2023-03-13T07:14:22;99083.00;;;8.08;100.00
16120;BME280;12670;53.502;10.252;2023-03-13T07:17:26;99071.44;;;8.11;100.00
16120;BME280;12670;53.502;10.252;2023-03-13T07:20:29;99064.94;;;8.16;100.00
16120;BME280;12670;53.502;10.252;2023-03-13T07:23:33;99057.97;;;8.15;100.00
16120;BME280;12670;53.502;10.252;2023-03-13T07:26:36;99047.41;;;8.15;100.00
16120;BME280;12670;53.502;10.252;2023-03-13T07:29:39;99057.59;;;8.21;100.00
16120;BME280;12670;53.502;10.252;2023-03-13T07:32:43;99055.50;;;8.26;100.00
16120;BME280;12670;53.502;10.252;2023-03-13T07:35:46;99049.47;;;8.24;100.00
16120;BME280;12670;53.502;10.252;2023-03-13T07:38:50;99043.06;;;8.28;100.00
16120;BME280;12670;53.502;10.252;2023-03-13T07:41:53;99043.81;;;8.31;100.00
16120;BME280;12670;53.502;10.252;2023-03-13T07:44:56;99049.56;;;8.39;100.00
16120;BME280;12670;53.502;10.252;2023-03-13T07:48:00;99038.41;;;8.48;100.00
16120;BME280;12670;53.502;10.252;2023-03-13T07:51:03;99033.50;;;8.42;100.00
16120;BME280;12670;53.502;10.252;2023-03-13T07:54:06;99029.06;;;8.42;100.00
16120;BME280;12670;53.502;10.252;2023-03-13T07:57:09;99032.66;;;8.41;100.00
16120;BME280;12670;53.502;10.252;2023-03-13T08:00:13;99024.94;;;8.52;100.00
16120;BME280;12670;53.502;10.252;2023-03-13T08:03:19;99020.31;;;8.56;100.00
16120;BME280;12670;53.502;10.252;2023-03-13T08:06:23;99019.63;;;8.67;100.00
16120;BME280;12670;53.502;10.252;2023-03-13T08:09:27;99023.34;;;8.64;100.00
16120;BME280;12670;53.502;10.252;2023-03-13T08:12:29;99022.41;;;8.79;100.00
16120;BME280;12670;53.502;10.252;2023-03-13T08:15:32;99015.97;;;8.84;100.00
16120;BME280;12670;53.502;10.252;2023-03-13T08:18:37;99007.94;;;8.85;100.00
16120;BME280;12670;53.502;10.252;2023-03-13T08:21:40;99020.78;;;8.91;100.00
16120;BME280;12670;53.502;10.252;2023-03-13T08:24:43;99011.69;;;8.95;100.00
16120;BME280;12670;53.502;10.252;2023-03-13T08:27:46;99009.44;;;9.03;100.00
16120;BME280;12670;53.502;10.252;2023-03-13T08:30:48;99004.22;;;9.16;100.00
16120;BME280;12670;53.502;10.252;2023-03-13T08:33:52;99005.59;;;9.36;100.00
16120;BME280;12670;53.502;10.252;2023-03-13T08:36:55;99012.84;;;9.47;100.00
16120;BME280;12670;53.502;10.252;2023-03-13T08:39:58;99008.66;;;9.57;100.00
16120;BME280;12670;53.502;10.252;2023-03-13T08:43:01;98992.41;;;9.76;100.00
16120;BME280;12670;53.502;10.252;2023-03-13T08:46:04;98990.72;;;9.87;100.00
16120;BME280;12670;53.502;10.252;2023-03-13T08:49:08;98983.97;;;9.96;100.00
16120;BME280;12670;53.502;10.252;2023-03-13T08:52:11;98989.31;;;10.09;100.00
16120;BME280;12670;53.502;10.252;2023-03-13T08:55:14;98992.47;;;10.14;100.00
16120;BME280;12670;53.502;10.252;2023-03-13T08:58:18;98979.56;;;10.22;100.00
16120;BME280;12670;53.502;10.252;2023-03-13T09:01:23;98972.72;;;10.32;100.00
16120;BME280;12670;53.502;10.252;2023-03-13T09:04:27;98973.97;;;10.39;100.00
16120;BME280;12670;53.502;10.252;2023-03-13T09:07:30;98966.66;;;10.43;100.00
16120;BME280;12670;53.502;10.252;2023-03-13T09:10:33;98970.38;;;10.53;100.00
16120;BME280;12670;53.502;10.252;2023-03-13T09:13:39;98977.69;;;10.62;100.00
16120;BME280;12670;53.502;10.252;2023-03-13T09:16:43;98978.09;;;10.69;100.00
16120;BME280;12670;53.502;10.252;2023-03-13T09:19:48;98980.00;;;10.80;100.00
16120;BME280;12670;53.502;10.252;2023-03-13T09:23:00;98959.31;;;10.85;100.00
16120;BME280;12670;53.502;10.252;2023-03-13T09:26:03;98957.28;;;10.88;100.00
16120;BME280;12670;53.502;10.252;2023-03-13T09:29:06;98959.59;;;10.93;100.00
16120;BME280;12670;53.502;10.252;2023-03-13T09:32:09;98956.38;;;11.01;100.00
16120;BME280;12670;53.502;10.252;2023-03-13T09:35:13;98962.66;;;11.00;100.00
16120;BME280;12670;53.502;10.252;2023-03-13T09:38:16;98961.25;;;11.07;100.00
16120;BME280;12670;53.502;10.252;2023-03-13T09:41:23;98960.81;;;11.13;100.00
16120;BME280;12670;53.502;10.252;2023-03-13T09:44:30;98945.66;;;11.15;100.00
16120;BME280;12670;53.502;10.252;2023-03-13T09:47:40;98949.75;;;11.19;100.00
16120;BME280;12670;53.502;10.252;2023-03-13T09:50:54;98958.47;;;11.21;100.00
16120;BME280;12670;53.502;10.252;2023-03-13T09:54:04;98955.25;;;11.29;100.00
16120;BME280;12670;53.502;10.252;2023-03-13T09:57:14;98952.25;;;11.33;100.00
16120;BME280;12670;53.502;10.252;2023-03-13T10:00:21;98959.81;;;11.27;100.00
16120;BME280;12670;53.502;10.252;2023-03-13T10:03:28;98960.94;;;11.35;100.00
16120;BME280;12670;53.502;10.252;2023-03-13T10:06:35;98964.97;;;11.41;100.00
16120;BME280;12670;53.502;10.252;2023-03-13T10:09:42;98963.44;;;11.50;100.00
16120;BME280;12670;53.502;10.252;2023-03-13T10:12:46;98963.66;;;11.46;100.00
16120;BME280;12670;53.502;10.252;2023-03-13T10:15:51;98975.06;;;11.60;100.00
16120;BME280;12670;53.502;10.252;2023-03-13T10:18:58;98969.53;;;11.63;100.00
16120;BME280;12670;53.502;10.252;2023-03-13T10:22:10;98965.47;;;11.70;100.00
16120;BME280;12670;53.502;10.252;2023-03-13T10:25:20;98972.75;;;11.79;100.00
16120;BME280;12670;53.502;10.252;2023-03-13T10:28:26;98968.38;;;11.78;100.00
16120;BME280;12670;53.502;10.252;2023-03-13T10:31:31;98971.78;;;11.80;100.00
16120;BME280;12670;53.502;10.252;2023-03-13T10:34:47;98994.31;;;11.87;100.00
16120;BME280;12670;53.502;10.252;2023-03-13T10:38:01;98984.97;;;11.82;100.00
16120;BME280;12670;53.502;10.252;2023-03-13T10:41:08;99003.47;;;11.83;100.00
16120;BME280;12670;53.502;10.252;2023-03-13T10:44:22;98986.38;;;11.98;100.00
16120;BME280;12670;53.502;10.252;2023-03-13T10:47:25;98981.97;;;12.21;100.00
16120;BME280;12670;53.502;10.252;2023-03-13T10:50:32;98969.59;;;12.56;100.00
16120;BME280;12670;53.502;10.252;2023-03-13T10:53:37;98945.94;;;13.18;100.00
16120;BME280;12670;53.502;10.252;2023-03-13T10:56:40;98943.78;;;13.12;100.00
16120;BME280;12670;53.502;10.252;2023-03-13T10:59:44;98931.56;;;13.10;100.00
16120;BME280;12670;53.502;10.252;2023-03-13T11:02:48;98927.25;;;12.97;100.00
16120;BME280;12670;53.502;10.252;2023-03-13T11:05:56;98929.91;;;12.86;100.00
16120;BME280;12670;53.502;10.252;2023-03-13T11:09:04;98929.41;;;12.92;100.00
16120;BME280;12670;53.502;10.252;2023-03-13T11:12:16;98915.97;;;12.94;100.00
16120;BME280;12670;53.502;10.252;2023-03-13T11:15:24;98917.81;;;12.93;100.00
16120;BME280;12670;53.502;10.252;2023-03-13T11:18:36;98913.94;;;12.86;100.00
16120;BME280;12670;53.502;10.252;2023-03-13T11:21:52;98916.63;;;12.75;100.00
16120;BME280;12670;53.502;10.252;2023-03-13T11:25:12;98903.53;;;12.83;100.00
16120;BME280;12670;53.502;10.252;2023-03-13T11:28:27;98904.72;;;13.01;100.00
16120;BME280;12670;53.502;10.252;2023-03-13T11:31:33;98909.06;;;13.14;100.00
16120;BME280;12670;53.502;10.252;2023-03-13T11:34:39;98887.50;;;13.28;100.00
16120;BME280;12670;53.502;10.252;2023-03-13T11:37:48;98884.00;;;13.27;100.00
16120;BME280;12670;53.502;10.252;2023-03-13T11:41:02;98886.31;;;13.21;100.00
16120;BME280;12670;53.502;10.252;2023-03-13T11:44:34;98886.53;;;13.18;100.00
16120;BME280;12670;53.502;10.252;2023-03-13T11:47:49;98872.03;;;13.22;100.00
16120;BME280;12670;53.502;10.252;2023-03-13T11:50:56;98887.03;;;13.12;100.00
16120;BME280;12670;53.502;10.252;2023-03-13T11:54:21;98894.16;;;13.22;100.00
16120;BME280;12670;53.502;10.252;2023-03-13T11:57:28;98896.19;;;13.30;100.00
16120;BME280;12670;53.502;10.252;2023-03-13T12:00:35;98886.34;;;13.42;100.00
16120;BME280;12670;53.502;10.252;2023-03-13T12:03:41;98867.56;;;13.96;100.00
16120;BME280;12670;53.502;10.252;2023-03-13T12:06:50;98859.31;;;14.60;100.00
16120;BME280;12670;53.502;10.252;2023-03-13T12:09:58;98861.00;;;14.61;100.00
16120;BME280;12670;53.502;10.252;2023-03-13T12:13:07;98861.50;;;14.86;100.00
16120;BME280;12670;53.502;10.252;2023-03-13T12:16:15;98848.78;;;15.18;100.00
16120;BME280;12670;53.502;10.252;2023-03-13T12:19:26;98841.16;;;15.04;100.00
16120;BME280;12670;53.502;10.252;2023-03-13T12:22:35;98835.31;;;14.60;100.00
16120;BME280;12670;53.502;10.252;2023-03-13T12:25:44;98835.03;;;14.33;100.00
16120;BME280;12670;53.502;10.252;2023-03-13T12:28:58;98837.75;;;14.43;100.00
16120;BME280;12670;53.502;10.252;2023-03-13T12:32:08;98830.84;;;14.40;100.00
16120;BME280;12670;53.502;10.252;2023-03-13T12:35:19;98830.78;;;14.51;100.00
16120;BME280;12670;53.502;10.252;2023-03-13T12:38:26;98820.97;;;14.71;100.00
16120;BME280;12670;53.502;10.252;2023-03-13T12:41:32;98810.31;;;14.61;100.00
16120;BME280;12670;53.502;10.252;2023-03-13T12:44:40;98818.63;;;14.78;100.00
16120;BME280;12670;53.502;10.252;2023-03-13T12:48:08;98822.19;;;15.07;100.00
16120;BME280;12670;53.502;10.252;2023-03-13T12:51:35;98800.22;;;15.62;98.66
16120;BME280;12670;53.502;10.252;2023-03-13T12:54:47;98805.25;;;16.31;90.09
16120;BME280;12670;53.502;10.252;2023-03-13T12:58:24;98794.44;;;16.23;91.19
16120;BME280;12670;53.502;10.252;2023-03-13T13:01:33;98792.63;;;15.47;89.89
16120;BME280;12670;53.502;10.252;2023-03-13T13:04:41;98809.53;;;15.38;91.70
16120;BME280;12670;53.502;10.252;2023-03-13T13:07:52;98787.31;;;15.38;90.59
16120;BME280;12670;53.502;10.252;2023-03-13T13:11:34;98789.16;;;15.37;93.60
16120;BME280;12670;53.502;10.252;2023-03-13T13:15:15;98804.59;;;15.53;91.25
16120;BME280;12670;53.502;10.252;2023-03-13T13:18:26;98796.09;;;16.34;86.86
16120;BME280;12670;53.502;10.252;2023-03-13T13:21:29;98775.22;;;16.37;82.26
16120;BME280;12670;53.502;10.252;2023-03-13T13:24:40;98773.88;;;16.78;79.77
16120;BME280;12670;53.502;10.252;2023-03-13T13:27:49;98783.38;;;16.63;75.90
16120;BME280;12670;53.502;10.252;2023-03-13T13:30:54;98765.97;;;16.32;79.40
16120;BME280;12670;53.502;10.252;2023-03-13T13:33:58;98767.94;;;16.30;80.76
16120;BME280;12670;53.502;10.252;2023-03-13T13:37:03;98764.47;;;17.10;78.08
16120;BME280;12670;53.502;10.252;2023-03-13T13:40:27;98763.34;;;17.30;74.33
16120;BME280;12670;53.502;10.252;2023-03-13T13:43:32;98733.38;;;17.17;69.66
16120;BME280;12670;53.502;10.252;2023-03-13T13:46:35;98738.44;;;17.20;73.24
16120;BME280;12670;53.502;10.252;2023-03-13T13:49:53;98731.84;;;17.58;68.78
16120;BME280;12670;53.502;10.252;2023-03-13T13:56:44;98728.94;;;19.05;61.07
16120;BME280;12670;53.502;10.252;2023-03-13T13:59:50;98756.31;;;18.42;59.32
16120;BME280;12670;53.502;10.252;2023-03-13T14:02:56;98730.25;;;17.66;62.60
16120;BME280;12670;53.502;10.252;2023-03-13T14:06:02;98724.97;;;17.56;67.13
16120;BME280;12670;53.502;10.252;2023-03-13T14:09:14;98720.44;;;17.30;67.85
16120;BME280;12670;53.502;10.252;2023-03-13T14:12:26;98723.78;;;16.89;69.25
16120;BME280;12670;53.502;10.252;2023-03-13T14:15:30;98725.88;;;16.67;69.40
16120;BME280;12670;53.502;10.252;2023-03-13T14:18:33;98707.44;;;17.00;70.19
16120;BME280;12670;53.502;10.252;2023-03-13T14:21:37;98712.03;;;17.25;66.56
16120;BME280;12670;53.502;10.252;2023-03-13T14:24:40;98683.50;;;17.42;65.42
16120;BME280;12670;53.502;10.252;2023-03-13T14:27:43;98698.63;;;17.25;65.28
16120;BME280;12670;53.502;10.252;2023-03-13T14:30:47;98694.56;;;17.21;66.28
16120;BME280;12670;53.502;10.252;2023-03-13T14:33:50;98687.50;;;17.38;66.33
16120;BME280;12670;53.502;10.252;2023-03-13T14:36:56;98684.41;;;17.51;66.76
16120;BME280;12670;53.502;10.252;2023-03-13T14:40:27;98670.09;;;17.16;66.23
16120;BME280;12670;53.502;10.252;2023-03-13T14:43:32;98677.78;;;17.37;67.78
16120;BME280;12670;53.502;10.252;2023-03-13T14:46:39;98679.09;;;17.59;66.18
16120;BME280;12670;53.502;10.252;2023-03-13T14:49:44;98671.06;;;17.59;65.31
16120;BME280;12670;53.502;10.252;2023-03-13T14:52:49;98674.72;;;17.58;65.29
16120;BME280;12670;53.502;10.252;2023-03-13T14:56:09;98653.22;;;16.98;66.55
16120;BME280;12670;53.502;10.252;2023-03-13T14:59:15;98658.50;;;16.90;67.95
16120;BME280;12670;53.502;10.252;2023-03-13T15:02:20;98659.66;;;16.87;66.55
16120;BME280;12670;53.502;10.252;2023-03-13T15:05:31;98633.28;;;16.74;69.09
16120;BME280;12670;53.502;10.252;2023-03-13T15:08:37;98642.13;;;16.57;68.24
16120;BME280;12670;53.502;10.252;2023-03-13T15:11:42;98626.41;;;16.72;68.80
16120;BME280;12670;53.502;10.252;2023-03-13T15:14:46;98646.84;;;16.63;69.21
16120;BME280;12670;53.502;10.252;2023-03-13T15:17:49;98640.72;;;16.53;69.45
16120;BME280;12670;53.502;10.252;2023-03-13T15:20:53;98624.31;;;16.66;69.35
16120;BME280;12670;53.502;10.252;2023-03-13T15:24:01;98625.38;;;16.55;69.17
16120;BME280;12670;53.502;10.252;2023-03-13T15:27:12;98626.22;;;16.38;69.20
16120;BME280;12670;53.502;10.252;2023-03-13T15:30:17;98621.78;;;16.29;70.31
16120;BME280;12670;53.502;10.252;2023-03-13T15:33:21;98618.56;;;16.25;71.12
16120;BME280;12670;53.502;10.252;2023-03-13T15:36:26;98631.16;;;16.15;71.79
16120;BME280;12670;53.502;10.252;2023-03-13T15:39:30;98621.13;;;15.99;72.43
16120;BME280;12670;53.502;10.252;2023-03-13T15:42:33;98617.31;;;16.02;71.88
16120;BME280;12670;53.502;10.252;2023-03-13T15:45:37;98616.16;;;16.04;72.45
16120;BME280;12670;53.502;10.252;2023-03-13T15:48:40;98603.13;;;16.01;72.35
16120;BME280;12670;53.502;10.252;2023-03-13T15:51:44;98597.38;;;15.96;73.01
16120;BME280;12670;53.502;10.252;2023-03-13T15:54:49;98597.81;;;15.91;73.54
16120;BME280;12670;53.502;10.252;2023-03-13T15:57:52;98591.03;;;15.97;73.74
16120;BME280;12670;53.502;10.252;2023-03-13T16:00:55;98585.47;;;16.08;73.13
16120;BME280;12670;53.502;10.252;2023-03-13T16:03:58;98573.94;;;16.08;73.04
16120;BME280;12670;53.502;10.252;2023-03-13T16:07:04;98572.38;;;16.05;71.78
16120;BME280;12670;53.502;10.252;2023-03-13T16:10:17;98581.84;;;15.99;71.66
16120;BME280;12670;53.502;10.252;2023-03-13T16:13:23;98572.69;;;16.02;72.90